KDLS/DLS METAR and TAF weather

Enter ICAO airport designator
Station Type Date Time Source
KDLS METAR 2019/10/21 21:53 UTC NOAA

KDLS 212153Z AUTO 29009KT 10SM OVC044 15/09 A3022 RMK AO2 SLP232 T01500089


Station Type Date Time Source
KDLS Decoded METAR 2019/10/21 21:53 UTC NOAA

THE DALLES MUNICIPAL AIRPORT , OR, United States (KDLS) 45-37N 121-10W 71M
Oct 21, 2019 - 05:53 PM EDT / 2019.10.21 2153 UTC
Wind: from the WNW (290 degrees) at 10 MPH (9 KT):0
Visibility: 10 mile(s):0
Sky conditions: overcast
Temperature: 59.0 F (15.0 C)
Dew Point: 48.0 F (8.9 C)
Relative Humidity: 66%
Pressure (altimeter): 30.22 in. Hg (1023 hPa)
ob: KDLS 212153Z AUTO 29009KT 10SM OVC044 15/09 A3022 RMK AO2 SLP232 T01500089
cycle: 22

Station Type Date Time Source
KDLS TAF 2019/10/21 18:24 UTC NOAA

TAF KDLS 211720Z 2118/2218 30008KT P6SM VCSH SCT040 OVC060
FM221730 30016G24KT P6SM SCT060

Example: see airport list